Time;durP1;ratioP1;P1;durP2;ratioP2;P2;SDS_P1;SDS_P2;PMS_P1;PMS_P2;Temp;Humidity;BMP_temperature;BMP_pressure;BME280_temperature;BME280_humidity;BME280_pressure;Samples;Min_cycle;Max_cycle;Signal;HPM_P1;HPM_P2
2023/08/19 00:01:09;;;;;;;;;;;;;;;17.78;44.11;100825.56;5098463;28;1014;-54
2023/08/19 00:03:35;;;;;;;;;;;;;;;17.78;44.25;100825.56;5098171;28;1110;-52
2023/08/19 00:06:11;;;;;;;;;;;;;;;17.87;43.97;100825.00;5099027;28;1104;-54
2023/08/19 00:08:37;;;;;;;;;;;;;;;17.76;44.25;100825.00;5086587;28;1913;-52
2023/08/19 00:11:02;;;;;;;;;;;;;;;17.83;44.34;100824.72;5098453;28;1125;-55
2023/08/19 00:13:29;;;;;;;;;;;;;;;17.84;44.38;100822.78;5098201;28;1170;-52
2023/08/19 00:15:55;;;;;;;;;;;;;;;17.75;44.68;100817.88;5098774;28;1125;-53
2023/08/19 00:18:20;;;;;;;;;;;;;;;17.78;44.45;100813.72;5098486;28;1149;-51
2023/08/19 00:20:46;;;;;;;;;;;;;;;17.83;44.46;100804.66;5098118;28;936;-53
2023/08/19 00:23:14;;;;;;;;;;;;;;;17.79;44.35;100802.47;5098056;28;1162;-52
2023/08/19 00:25:40;;;;;;;;;;;;;;;17.80;44.51;100811.53;5097936;28;1125;-54
2023/08/19 00:28:05;;;;;;;;;;;;;;;17.81;44.30;100799.44;5097915;28;2490;-53
2023/08/19 00:30:31;;;;;;;;;;;;;;;17.84;44.29;100804.38;5097733;28;1058;-53
2023/08/19 00:32:56;;;;;;;;;;;;;;;17.73;44.56;100803.56;5097913;28;1229;-53
2023/08/19 00:35:22;;;;;;;;;;;;;;;17.74;44.34;100796.97;5080248;28;1578;-54
2023/08/19 00:37:47;;;;;;;;;;;;;;;17.84;44.41;100803.53;5080078;28;1598;-54
2023/08/19 00:40:16;;;;;;;;;;;;;;;17.82;44.35;100805.75;5098001;28;1117;-52
2023/08/19 00:42:41;;;;;;;;;;;;;;;17.75;44.54;100801.38;5084218;28;1197;-52
2023/08/19 00:45:07;;;;;;;;;;;;;;;17.86;44.11;100806.84;5097512;28;932;-54
2023/08/19 00:47:33;;;;;;;;;;;;;;;17.82;44.32;100805.75;5097736;28;1015;-52
2023/08/19 00:49:58;;;;;;;;;;;;;;;17.74;44.36;100810.72;5097662;28;1901;-53
2023/08/19 00:52:24;;;;;;;;;;;;;;;17.69;44.54;100805.25;5088654;28;1034;-53
2023/08/19 00:54:50;;;;;;;;;;;;;;;17.70;44.36;100801.41;5089330;28;1169;-53
2023/08/19 00:57:15;;;;;;;;;;;;;;;17.80;44.17;100806.03;5062625;28;2310;-51
2023/08/19 00:59:42;;;;;;;;;;;;;;;17.72;44.46;100801.13;5063049;28;1103;-54
2023/08/19 01:02:08;;;;;;;;;;;;;;;17.74;44.53;100801.63;5096510;28;1065;-54
2023/08/19 01:04:33;;;;;;;;;;;;;;;17.78;44.37;100795.31;5097549;28;1122;-52
2023/08/19 01:07:05;;;;;;;;;;;;;;;17.73;44.40;100798.06;5079650;28;1329;-53
2023/08/19 01:09:38;;;;;;;;;;;;;;;17.75;44.32;100806.88;5092603;28;1906;-53
2023/08/19 01:12:23;;;;;;;;;;;;;;;17.72;44.37;100810.19;5062734;28;1311;-51
2023/08/19 01:15:07;;;;;;;;;;;;;;;17.78;44.20;100811.81;5079081;28;1267;-54
2023/08/19 01:17:33;;;;;;;;;;;;;;;17.60;44.40;100810.50;5096848;28;1024;-53
2023/08/19 01:19:58;;;;;;;;;;;;;;;17.74;44.26;100823.66;5096531;28;1138;-53
2023/08/19 01:22:36;;;;;;;;;;;;;;;17.71;44.27;100818.72;5096914;28;1035;-51
2023/08/19 01:25:01;;;;;;;;;;;;;;;17.69;44.49;100815.44;5049432;28;1233;-53
2023/08/19 01:27:27;;;;;;;;;;;;;;;17.72;43.98;100818.44;5096474;28;2636;-54
2023/08/19 01:29:55;;;;;;;;;;;;;;;17.81;43.80;100820.59;5096937;28;1968;-53
2023/08/19 01:32:21;;;;;;;;;;;;;;;17.69;44.15;100832.75;5096787;28;1066;-52
2023/08/19 01:34:47;;;;;;;;;;;;;;;17.64;44.19;100827.25;5083376;28;1008;-51
2023/08/19 01:37:13;;;;;;;;;;;;;;;17.70;43.94;100837.16;5079055;28;1109;-53
2023/08/19 01:39:39;;;;;;;;;;;;;;;17.56;44.30;100836.09;5065645;28;1047;-53
2023/08/19 01:42:04;;;;;;;;;;;;;;;17.63;44.18;100836.63;5078644;28;1043;-51
2023/08/19 01:44:30;;;;;;;;;;;;;;;17.55;44.06;100823.44;5078636;28;1074;-50
2023/08/19 01:46:56;;;;;;;;;;;;;;;17.65;43.85;100839.91;5078478;28;1106;-52
2023/08/19 01:49:21;;;;;;;;;;;;;;;17.64;43.89;100829.19;5100320;28;1894;-52
2023/08/19 01:51:48;;;;;;;;;;;;;;;17.59;43.86;100824.53;5084236;28;1236;-52
2023/08/19 01:54:13;;;;;;;;;;;;;;;17.71;43.81;100833.31;5078355;28;1129;-52
2023/08/19 01:56:39;;;;;;;;;;;;;;;17.60;44.00;100820.69;5077896;28;1840;-53
2023/08/19 01:59:04;;;;;;;;;;;;;;;17.55;44.13;100834.44;5078564;28;1389;-53
2023/08/19 02:01:30;;;;;;;;;;;;;;;17.64;43.62;100837.44;5078303;28;1267;-55
2023/08/19 02:03:55;;;;;;;;;;;;;;;17.57;43.65;100832.22;5096624;28;1090;-53
2023/08/19 02:06:21;;;;;;;;;;;;;;;17.60;43.87;100834.44;5096123;28;1014;-53
2023/08/19 02:08:46;;;;;;;;;;;;;;;17.67;43.60;100834.97;5095544;28;1968;-52
2023/08/19 02:11:12;;;;;;;;;;;;;;;17.57;43.93;100832.22;5096040;28;1153;-53
2023/08/19 02:13:38;;;;;;;;;;;;;;;17.51;43.95;100827.84;5089045;28;1102;-53
2023/08/19 02:16:03;;;;;;;;;;;;;;;17.47;43.93;100821.25;5071510;28;1114;-53
2023/08/19 02:18:29;;;;;;;;;;;;;;;17.65;43.64;100822.59;5078015;28;1106;-54
2023/08/19 02:20:54;;;;;;;;;;;;;;;17.55;43.93;100823.44;5096136;28;1069;-53
2023/08/19 02:23:20;;;;;;;;;;;;;;;17.56;43.55;100819.59;5077730;28;1536;-52
2023/08/19 02:25:45;;;;;;;;;;;;;;;17.49;43.71;100814.38;5096238;28;1153;-52
2023/08/19 02:28:11;;;;;;;;;;;;;;;17.58;43.82;100817.38;5095910;28;1988;-52
2023/08/19 02:30:39;;;;;;;;;;;;;;;17.50;43.75;100815.19;5077830;28;1224;-52
2023/08/19 02:33:08;;;;;;;;;;;;;;;17.51;43.79;100811.34;5095408;28;1154;-50
2023/08/19 02:35:33;;;;;;;;;;;;;;;17.48;43.87;100820.16;5095751;28;1022;-51
2023/08/19 02:37:59;;;;;;;;;;;;;;;17.47;44.02;100816.56;5095821;28;1060;-52
2023/08/19 02:40:24;;;;;;;;;;;;;;;17.43;43.91;100826.47;5095647;28;1061;-53
2023/08/19 02:42:50;;;;;;;;;;;;;;;17.56;43.69;100819.59;5077323;28;1063;-53
2023/08/19 02:45:15;;;;;;;;;;;;;;;17.44;43.89;100817.94;5095805;28;1146;-53
2023/08/19 02:47:41;;;;;;;;;;;;;;;17.56;43.59;100820.41;5095458;28;1141;-53
2023/08/19 02:50:07;;;;;;;;;;;;;;;17.49;43.92;100816.28;5077872;28;1906;-52
2023/08/19 02:52:32;;;;;;;;;;;;;;;17.45;43.71;100814.09;5073868;28;1232;-52
2023/08/19 02:54:58;;;;;;;;;;;;;;;17.53;43.47;100815.47;5074419;28;1298;-53
2023/08/19 02:57:23;;;;;;;;;;;;;;;17.44;43.87;100823.44;5075157;28;1784;-51
2023/08/19 02:59:49;;;;;;;;;;;;;;;17.44;43.67;100822.63;5075480;28;980;-53
2023/08/19 03:02:14;;;;;;;;;;;;;;;17.48;43.80;100823.72;5075498;28;1144;-55
2023/08/19 03:04:40;;;;;;;;;;;;;;;17.49;43.62;100819.03;5075445;28;1086;-52
2023/08/19 03:07:05;;;;;;;;;;;;;;;17.49;43.80;100819.03;5074271;28;1130;-54
2023/08/19 03:09:31;;;;;;;;;;;;;;;17.49;43.64;100814.38;5074830;28;1976;-52
2023/08/19 03:11:56;;;;;;;;;;;;;;;17.48;43.80;100809.97;5074045;28;1279;-52
2023/08/19 03:14:22;;;;;;;;;;;;;;;17.42;43.81;100809.19;5075192;28;1109;-49
2023/08/19 03:16:49;;;;;;;;;;;;;;;17.48;43.69;100803.66;5075038;28;1141;-49
2023/08/19 03:19:15;;;;;;;;;;;;;;;17.48;43.97;100807.22;5075530;28;1138;-53
2023/08/19 03:21:41;;;;;;;;;;;;;;;17.38;44.17;100810.00;5070167;28;1566;-50
2023/08/19 03:24:07;;;;;;;;;;;;;;;17.48;43.97;100817.41;5074266;28;905;-52
2023/08/19 03:26:32;;;;;;;;;;;;;;;17.47;44.07;100818.50;5078910;28;1870;-50
2023/08/19 03:28:58;;;;;;;;;;;;;;;17.51;44.04;100822.34;5077775;28;1909;-52
2023/08/19 03:31:24;;;;;;;;;;;;;;;17.53;43.92;100817.38;5079105;28;1037;-53
2023/08/19 03:33:51;;;;;;;;;;;;;;;17.45;44.07;100819.59;5077674;28;1223;-51
2023/08/19 03:36:16;;;;;;;;;;;;;;;17.53;44.02;100825.63;5078566;28;1204;-52
2023/08/19 03:38:42;;;;;;;;;;;;;;;17.47;44.14;100818.50;5077382;28;2356;-51
2023/08/19 03:41:08;;;;;;;;;;;;;;;17.57;44.01;100826.72;5077233;28;1253;-50
2023/08/19 03:43:34;;;;;;;;;;;;;;;17.48;44.20;100831.16;5078373;28;1054;-49
2023/08/19 03:45:59;;;;;;;;;;;;;;;17.44;44.12;100820.69;5076728;28;1426;-50
2023/08/19 03:48:27;;;;;;;;;;;;;;;17.47;44.30;100816.56;5077266;28;1969;-49
2023/08/19 03:50:52;;;;;;;;;;;;;;;17.54;43.98;100813.53;5077173;28;1616;-47
2023/08/19 03:53:18;;;;;;;;;;;;;;;17.65;46.08;100817.09;5091037;28;1649;-51
2023/08/19 03:55:43;;;;;;;;;;;;;;;17.62;45.93;100815.72;5087749;28;1099;-51
2023/08/19 03:58:09;;;;;;;;;;;;;;;17.44;45.82;100817.13;5085054;28;2750;-52
2023/08/19 04:00:35;;;;;;;;;;;;;;;17.59;45.40;100819.03;5089942;28;1432;-52
2023/08/19 04:03:01;;;;;;;;;;;;;;;17.47;45.52;100810.25;5078627;28;1388;-51
2023/08/19 04:05:26;;;;;;;;;;;;;;;17.54;45.08;100816.28;5077316;28;1424;-53
2023/08/19 04:07:52;;;;;;;;;;;;;;;17.57;45.23;100810.22;5096207;28;912;-52
2023/08/19 04:10:17;;;;;;;;;;;;;;;17.50;45.10;100806.94;5089408;28;1917;-48
2023/08/19 04:12:43;;;;;;;;;;;;;;;17.59;44.98;100808.03;5078044;28;1133;-48
2023/08/19 04:15:10;;;;;;;;;;;;;;;17.54;44.98;100797.03;5079645;28;1090;-47
2023/08/19 04:17:36;;;;;;;;;;;;;;;17.58;44.77;100807.19;5078043;28;1169;-48
2023/08/19 04:20:03;;;;;;;;;;;;;;;17.55;45.17;100796.75;5079222;28;1150;-49
2023/08/19 04:22:28;;;;;;;;;;;;;;;17.59;44.84;100786.84;5079294;28;1183;-50
2023/08/19 04:24:54;;;;;;;;;;;;;;;17.53;44.94;100798.97;5073732;28;1139;-52
2023/08/19 04:27:21;;;;;;;;;;;;;;;17.61;44.92;100794.81;5092209;28;2565;-48
2023/08/19 04:29:47;;;;;;;;;;;;;;;17.58;44.81;100804.44;5079642;28;1925;-51
2023/08/19 04:32:14;;;;;;;;;;;;;;;17.54;44.94;100813.53;5079499;28;1431;-48
2023/08/19 04:34:40;;;;;;;;;;;;;;;17.58;45.02;100820.13;5074674;28;1349;-51
2023/08/19 04:37:08;;;;;;;;;;;;;;;17.51;45.08;100819.59;5079529;28;1319;-52
2023/08/19 04:39:36;;;;;;;;;;;;;;;17.58;45.08;100826.44;5078810;28;1239;-50
2023/08/19 04:42:08;;;;;;;;;;;;;;;17.59;44.63;100824.53;5079699;28;1102;-48
2023/08/19 04:44:34;;;;;;;;;;;;;;;17.63;45.10;100828.38;5088173;28;1149;-48
2023/08/19 04:47:01;;;;;;;;;;;;;;;18.91;43.39;100845.38;5079099;28;1236;-49
2023/08/19 04:49:27;;;;;;;;;;;;;;;18.48;44.67;100834.88;5079305;28;1979;-50
2023/08/19 04:51:52;;;;;;;;;;;;;;;18.33;45.30;100835.81;5097721;28;1126;-47
2023/08/19 04:54:18;;;;;;;;;;;;;;;18.28;45.92;100835.84;5090943;28;1106;-47
2023/08/19 04:56:43;;;;;;;;;;;;;;;18.19;46.52;100832.84;5097063;28;2190;-50
2023/08/19 04:59:09;;;;;;;;;;;;;;;18.09;47.00;100825.47;5073943;28;1094;-49
2023/08/19 05:01:35;;;;;;;;;;;;;;;18.07;47.29;100835.91;5079236;28;1133;-49
2023/08/19 05:04:00;;;;;;;;;;;;;;;18.06;47.63;100838.97;5075461;28;1177;-51
2023/08/19 05:06:26;;;;;;;;;;;;;;;18.06;48.03;100842.56;5078941;28;1110;-50
2023/08/19 05:08:52;;;;;;;;;;;;;;;18.02;48.30;100854.38;5079086;28;1974;-49
2023/08/19 05:11:18;;;;;;;;;;;;;;;17.97;48.60;100846.97;5078446;28;1263;-47
2023/08/19 05:13:44;;;;;;;;;;;;;;;18.01;48.73;100855.50;5078689;28;1274;-49
2023/08/19 05:16:12;;;;;;;;;;;;;;;17.87;49.40;100869.00;5077117;28;1682;-50
2023/08/19 05:18:38;;;;;;;;;;;;;;;17.91;49.41;100864.63;5086539;28;1051;-47
2023/08/19 05:21:03;;;;;;;;;;;;;;;17.86;49.51;100873.66;5093315;28;1110;-50
2023/08/19 05:23:29;;;;;;;;;;;;;;;17.81;49.86;100876.47;5087467;28;1400;-51
2023/08/19 05:25:54;;;;;;;;;;;;;;;17.83;50.06;100879.72;5094384;28;2209;-51
2023/08/19 05:28:20;;;;;;;;;;;;;;;17.86;50.27;100892.09;5096044;28;1976;-51
2023/08/19 05:30:45;;;;;;;;;;;;;;;17.82;50.36;100896.53;5096881;28;1006;-49
2023/08/19 05:33:11;;;;;;;;;;;;;;;17.82;50.50;100900.09;5096950;28;1043;-48
2023/08/19 05:35:36;;;;;;;;;;;;;;;17.77;50.92;100895.44;5096449;28;816;-48
2023/08/19 05:38:02;;;;;;;;;;;;;;;17.74;51.02;100895.16;5096104;28;1034;-49
2023/08/19 05:40:27;;;;;;;;;;;;;;;17.73;51.27;100897.09;5096249;28;1117;-50
2023/08/19 05:42:53;;;;;;;;;;;;;;;17.73;51.27;100899.84;5096529;28;998;-47
2023/08/19 05:45:18;;;;;;;;;;;;;;;17.70;51.61;100902.34;5096520;28;1047;-51
2023/08/19 05:47:44;;;;;;;;;;;;;;;17.64;51.53;100907.00;5089675;28;1226;-49
2023/08/19 05:50:09;;;;;;;;;;;;;;;17.65;51.93;100900.41;5095290;28;1913;-50
2023/08/19 05:52:35;;;;;;;;;;;;;;;17.66;51.79;100907.56;5095647;28;1113;-51
2023/08/19 05:55:00;;;;;;;;;;;;;;;17.63;52.08;100897.13;5096330;28;987;-49
2023/08/19 05:57:26;;;;;;;;;;;;;;;17.62;52.03;100895.47;5082014;28;1760;-56
2023/08/19 05:59:51;;;;;;;;;;;;;;;17.67;52.11;100892.72;5084053;28;936;-57
2023/08/19 06:02:17;;;;;;;;;;;;;;;17.60;52.09;100892.19;5095747;28;1358;-59
2023/08/19 06:04:43;;;;;;;;;;;;;;;17.61;52.29;100888.31;5096346;28;978;-56
2023/08/19 06:07:08;;;;;;;;;;;;;;;17.58;52.23;100883.38;5096244;28;1046;-57
2023/08/19 06:09:34;;;;;;;;;;;;;;;17.57;52.50;100881.72;5095393;28;1909;-57
2023/08/19 06:11:59;;;;;;;;;;;;;;;17.58;52.46;100889.69;5094206;28;1049;-57
2023/08/19 06:14:25;;;;;;;;;;;;;;;17.56;52.69;100893.84;5095795;28;1006;-57
2023/08/19 06:16:50;;;;;;;;;;;;;;;17.60;52.35;100893.00;5096113;28;1104;-57
2023/08/19 06:19:16;;;;;;;;;;;;;;;17.58;52.55;100894.38;5096194;28;999;-57
2023/08/19 06:21:41;;;;;;;;;;;;;;;17.54;52.54;100891.34;5095969;28;1074;-55
2023/08/19 06:24:07;;;;;;;;;;;;;;;17.56;52.68;100894.66;5094961;28;913;-53
2023/08/19 06:26:33;;;;;;;;;;;;;;;17.56;52.95;100891.09;5091354;28;2266;-57
2023/08/19 06:28:58;;;;;;;;;;;;;;;17.54;52.80;100887.78;5095942;28;1981;-58
2023/08/19 06:31:24;;;;;;;;;;;;;;;17.57;52.88;100888.06;5095363;28;1093;-56
2023/08/19 06:33:50;;;;;;;;;;;;;;;17.53;52.91;100886.97;5095608;28;1018;-57
2023/08/19 06:36:16;;;;;;;;;;;;;;;17.61;53.00;100885.56;5095006;28;883;-55
2023/08/19 06:38:44;;;;;;;;;;;;;;;17.62;53.21;100887.22;5095303;28;970;-59
2023/08/19 06:41:10;;;;;;;;;;;;;;;17.62;53.30;100904.53;5076734;28;1078;-56
2023/08/19 06:43:38;;;;;;;;;;;;;;;17.53;53.27;100897.13;5096000;28;1126;-58
2023/08/19 06:46:04;;;;;;;;;;;;;;;17.61;53.29;100894.66;5095278;28;1169;-57
2023/08/19 06:48:30;;;;;;;;;;;;;;;17.57;53.34;100887.22;5095979;28;1976;-58
2023/08/19 06:50:55;;;;;;;;;;;;;;;17.56;53.32;100880.91;5095469;28;1150;-57
2023/08/19 06:53:21;;;;;;;;;;;;;;;17.65;53.23;100900.41;5095382;28;999;-57
2023/08/19 06:55:56;;;;;;;;;;;;;;;17.61;53.51;100893.81;5092127;28;1950;-57
2023/08/19 06:58:23;;;;;;;;;;;;;;;17.66;53.65;100891.06;5071003;28;1055;-57
2023/08/19 07:00:48;;;;;;;;;;;;;;;17.67;53.56;100887.22;5098162;28;1002;-56
2023/08/19 07:03:14;;;;;;;;;;;;;;;17.64;53.66;100882.25;5081048;28;1007;-58
2023/08/19 07:05:39;;;;;;;;;;;;;;;17.66;53.58;100893.00;5081731;28;1175;-57
2023/08/19 07:08:06;;;;;;;;;;;;;;;17.68;53.71;100888.03;5098569;28;1966;-56
2023/08/19 07:10:32;;;;;;;;;;;;;;;17.69;53.90;100892.44;5090262;28;1467;-57
2023/08/19 07:12:58;;;;;;;;;;;;;;;17.63;54.09;100891.63;5090947;28;1459;-56
2023/08/19 07:15:23;;;;;;;;;;;;;;;17.70;53.94;100889.41;5099380;28;1058;-58
2023/08/19 07:17:49;;;;;;;;;;;;;;;17.63;54.12;100891.63;5099891;28;1022;-56
2023/08/19 07:20:16;;;;;;;;;;;;;;;17.66;54.06;100893.81;5081189;28;1062;-54
2023/08/19 07:22:42;;;;;;;;;;;;;;;17.70;53.91;100886.66;5098467;28;1041;-57
2023/08/19 07:25:08;;;;;;;;;;;;;;;17.75;53.86;100894.91;5080349;28;1141;-57
2023/08/19 07:27:34;;;;;;;;;;;;;;;17.73;54.11;100894.34;5096731;28;2582;-57
2023/08/19 07:29:59;;;;;;;;;;;;;;;17.76;53.88;100899.28;5080013;28;1975;-57
2023/08/19 07:32:25;;;;;;;;;;;;;;;17.69;54.15;100906.19;5098138;28;1094;-61
2023/08/19 07:34:51;;;;;;;;;;;;;;;17.69;54.26;100890.50;5068242;28;1058;-56
2023/08/19 07:37:16;;;;;;;;;;;;;;;17.70;54.20;100892.16;5099196;28;1141;-57
2023/08/19 07:39:41;;;;;;;;;;;;;;;17.72;54.45;100889.94;5098671;28;1181;-57
2023/08/19 07:42:07;;;;;;;;;;;;;;;17.71;54.28;100882.81;5080713;28;1027;-57
2023/08/19 07:44:32;;;;;;;;;;;;;;;17.75;54.39;100883.91;5099024;28;1117;-59
2023/08/19 07:46:58;;;;;;;;;;;;;;;17.73;54.38;100886.09;5098456;28;991;-56
2023/08/19 07:49:23;;;;;;;;;;;;;;;17.73;54.55;100888.84;5098648;28;1913;-57
2023/08/19 07:51:49;;;;;;;;;;;;;;;17.76;54.59;100892.97;5098119;28;1117;-57
2023/08/19 07:54:14;;;;;;;;;;;;;;;17.78;54.40;100888.84;5098568;28;1185;-58
2023/08/19 07:56:40;;;;;;;;;;;;;;;17.78;54.62;100888.00;5091262;28;2343;-58
2023/08/19 07:59:06;;;;;;;;;;;;;;;17.73;54.88;100886.09;5098339;28;1078;-60
2023/08/19 08:01:32;;;;;;;;;;;;;;;17.77;54.67;100892.69;5098779;28;1022;-60
2023/08/19 08:03:57;;;;;;;;;;;;;;;17.82;54.58;100891.03;5084352;28;1004;-56
2023/08/19 08:06:23;;;;;;;;;;;;;;;17.79;55.03;100903.41;5097525;28;1010;-58
2023/08/19 08:08:48;;;;;;;;;;;;;;;17.78;55.03;100891.59;5098853;28;1886;-57
2023/08/19 08:11:14;;;;;;;;;;;;;;;17.88;54.82;100903.66;5097591;28;1011;-58
2023/08/19 08:13:39;;;;;;;;;;;;;;;17.87;55.05;100911.09;5097767;28;1134;-57
2023/08/19 08:16:05;;;;;;;;;;;;;;;17.87;55.08;100907.53;5098178;28;1003;-60
2023/08/19 08:18:30;;;;;;;;;;;;;;;17.84;55.20;100897.06;5097635;28;1082;-59
2023/08/19 08:20:56;;;;;;;;;;;;;;;17.87;55.19;100897.34;5098300;28;1081;-59
2023/08/19 08:23:21;;;;;;;;;;;;;;;17.85;55.09;100887.69;5097674;28;1102;-58
2023/08/19 08:25:47;;;;;;;;;;;;;;;17.88;55.09;100898.13;5097911;28;2490;-58
2023/08/19 08:28:12;;;;;;;;;;;;;;;17.87;55.24;100896.50;5096843;28;1992;-59
2023/08/19 08:30:38;;;;;;;;;;;;;;;17.85;55.21;100899.56;5098652;28;1081;-59
2023/08/19 08:33:04;;;;;;;;;;;;;;;17.87;55.44;100913.03;5097487;28;1154;-59
2023/08/19 08:35:29;;;;;;;;;;;;;;;17.90;55.17;100913.28;5097775;28;1090;-60
2023/08/19 08:37:55;;;;;;;;;;;;;;;17.89;55.45;100917.16;5097832;28;1034;-62
2023/08/19 08:40:20;;;;;;;;;;;;;;;17.90;55.25;100907.78;5097843;28;1171;-58
2023/08/19 08:42:46;;;;;;;;;;;;;;;17.89;55.13;100905.31;5080155;28;1135;-58
2023/08/19 08:45:11;;;;;;;;;;;;;;;17.87;55.32;100902.03;5097720;28;996;-58
2023/08/19 08:47:37;;;;;;;;;;;;;;;17.92;55.31;100893.75;5079095;28;1034;-58
2023/08/19 08:50:03;;;;;;;;;;;;;;;17.86;55.38;100900.38;5079578;28;1898;-60
2023/08/19 08:52:28;;;;;;;;;;;;;;;17.90;55.36;100891.25;5097723;28;1106;-58
2023/08/19 08:54:54;;;;;;;;;;;;;;;17.88;55.40;100887.13;5096914;28;1110;-57
2023/08/19 08:57:20;;;;;;;;;;;;;;;17.92;55.30;100882.75;5079452;28;1808;-57
2023/08/19 08:59:45;;;;;;;;;;;;;;;17.93;55.29;100876.97;5096263;28;1253;-58
2023/08/19 09:02:11;;;;;;;;;;;;;;;17.89;55.55;100884.13;5096354;28;1035;-58
2023/08/19 09:04:37;;;;;;;;;;;;;;;17.93;55.57;100867.91;5097190;28;1019;-58
2023/08/19 09:07:09;;;;;;;;;;;;;;;17.95;55.39;100879.47;5079352;28;1047;-59
2023/08/19 09:09:34;;;;;;;;;;;;;;;17.92;55.46;100871.75;5090189;28;1969;-60
2023/08/19 09:12:00;;;;;;;;;;;;;;;17.89;55.58;100869.53;5090643;28;853;-60
2023/08/19 09:14:31;;;;;;;;;;;;;;;17.94;55.42;100869.56;5093353;28;1063;-56
2023/08/19 09:16:56;;;;;;;;;;;;;;;17.96;55.50;100861.84;5078982;28;881;-57
2023/08/19 09:19:22;;;;;;;;;;;;;;;17.97;55.41;100865.44;5078249;28;1039;-57
2023/08/19 09:21:47;;;;;;;;;;;;;;;17.95;55.41;100866.53;5067239;28;1000;-58
2023/08/19 09:24:16;;;;;;;;;;;;;;;17.96;55.52;100867.34;5096063;28;1117;-58
2023/08/19 09:26:42;;;;;;;;;;;;;;;17.95;55.63;100866.53;5096370;28;2457;-57
2023/08/19 09:29:08;;;;;;;;;;;;;;;18.00;55.47;100862.13;5078654;28;1964;-57
2023/08/19 09:31:33;;;;;;;;;;;;;;;17.97;55.62;100852.50;5096836;28;1029;-57
2023/08/19 09:34:00;;;;;;;;;;;;;;;17.97;55.45;100868.19;5096368;28;1008;-57
2023/08/19 09:36:25;;;;;;;;;;;;;;;17.92;55.88;100867.09;5093878;28;963;-58
2023/08/19 09:38:54;;;;;;;;;;;;;;;18.00;55.52;100862.91;5096958;28;1205;-57
2023/08/19 09:41:19;;;;;;;;;;;;;;;17.99;55.60;100874.22;5083911;28;1101;-57
2023/08/19 09:43:46;;;;;;;;;;;;;;;18.04;55.42;100868.69;5083124;28;951;-57
2023/08/19 09:46:12;;;;;;;;;;;;;;;18.03;55.51;100862.34;5089233;28;1126;-58
2023/08/19 09:48:39;;;;;;;;;;;;;;;18.04;55.43;100868.69;5071620;28;1906;-58
2023/08/19 09:51:08;;;;;;;;;;;;;;;18.02;55.72;100876.41;5087298;28;1122;-59
2023/08/19 09:53:34;;;;;;;;;;;;;;;18.04;55.55;100869.50;5081988;28;1159;-57
2023/08/19 09:55:59;;;;;;;;;;;;;;;18.09;55.52;100869.50;5071209;28;1905;-56
2023/08/19 09:58:25;;;;;;;;;;;;;;;18.00;55.52;100862.91;5086703;28;1427;-57
2023/08/19 10:00:50;;;;;;;;;;;;;;;17.97;55.73;100873.69;5092119;28;879;-57
2023/08/19 10:03:16;;;;;;;;;;;;;;;18.03;55.59;100872.56;5093397;28;948;-56
2023/08/19 10:05:42;;;;;;;;;;;;;;;18.03;55.74;100861.53;5079057;28;1079;-57
2023/08/19 10:08:08;;;;;;;;;;;;;;;18.00;55.84;100862.91;5064460;28;1898;-57
2023/08/19 10:10:36;;;;;;;;;;;;;;;18.02;55.63;100860.72;5077603;28;1273;-58
2023/08/19 10:13:02;;;;;;;;;;;;;;;18.00;55.78;100856.59;5095604;28;889;-58
2023/08/19 10:15:27;;;;;;;;;;;;;;;18.05;55.60;100859.34;5069484;28;987;-60
2023/08/19 10:17:54;;;;;;;;;;;;;;;18.00;55.65;100857.41;5091959;28;1034;-60
2023/08/19 10:20:21;;;;;;;;;;;;;;;18.05;55.50;100854.66;5077771;28;1047;-60
2023/08/19 10:22:47;;;;;;;;;;;;;;;18.05;55.45;100849.16;5076186;28;1339;-60
2023/08/19 10:25:13;;;;;;;;;;;;;;;18.09;55.67;100855.75;5088507;28;1363;-60
2023/08/19 10:27:38;;;;;;;;;;;;;;;18.07;55.54;100857.94;5091260;28;2524;-60
2023/08/19 10:30:33;;;;;;;;;;;;;;;18.10;55.71;100845.56;5094821;28;1913;-59
2023/08/19 10:33:04;;;;;;;;;;;;;;;18.16;55.26;100852.69;5088312;28;1347;-59
2023/08/19 10:35:50;;;;;;;;;;;;;;;18.06;55.76;100839.81;5076081;28;1142;-57
2023/08/19 10:38:15;;;;;;;;;;;;;;;18.09;55.72;100846.66;5083735;28;1704;-57
2023/08/19 10:40:41;;;;;;;;;;;;;;;18.08;55.64;100832.06;5082588;28;1232;-56
2023/08/19 10:43:06;;;;;;;;;;;;;;;18.12;55.53;100838.66;5096487;28;1057;-57
2023/08/19 10:45:32;;;;;;;;;;;;;;;18.08;55.61;100837.56;5095851;28;1105;-57
2023/08/19 10:47:58;;;;;;;;;;;;;;;18.10;55.62;100849.13;5088518;28;1252;-56
2023/08/19 10:50:26;;;;;;;;;;;;;;;18.09;55.68;100843.91;5087580;28;1921;-59
2023/08/19 10:52:58;;;;;;;;;;;;;;;18.10;55.66;100840.88;5093927;28;1272;-58
2023/08/19 10:55:23;;;;;;;;;;;;;;;18.12;55.70;100849.66;5091431;28;1212;-56
2023/08/19 10:57:48;;;;;;;;;;;;;;;18.13;55.70;100845.81;5089394;28;2507;-56
2023/08/19 11:00:14;;;;;;;;;;;;;;;18.16;55.42;100852.69;5073692;28;1214;-57
2023/08/19 11:02:40;;;;;;;;;;;;;;;18.14;55.70;100854.88;5087071;28;983;-57
2023/08/19 11:05:06;;;;;;;;;;;;;;;18.13;55.56;100850.47;5075503;28;1227;-55
2023/08/19 11:07:33;;;;;;;;;;;;;;;18.17;55.44;100853.50;5092591;28;892;-56
2023/08/19 11:09:58;;;;;;;;;;;;;;;18.12;55.47;100841.41;5095358;28;1905;-56
2023/08/19 11:12:26;;;;;;;;;;;;;;;18.13;55.40;100851.31;5094642;28;1530;-57
2023/08/19 11:14:52;;;;;;;;;;;;;;;18.15;55.61;100856.53;5094862;28;963;-56
2023/08/19 11:17:18;;;;;;;;;;;;;;;18.10;55.81;100845.56;5095487;28;1000;-58
2023/08/19 11:19:43;;;;;;;;;;;;;;;18.15;55.67;100847.47;5095353;28;1153;-57
2023/08/19 11:22:15;;;;;;;;;;;;;;;18.06;55.76;100842.56;5095048;28;1090;-57
2023/08/19 11:24:40;;;;;;;;;;;;;;;18.12;55.79;100849.66;5095133;28;939;-57
2023/08/19 11:27:06;;;;;;;;;;;;;;;18.16;55.61;100849.94;5092447;28;2641;-56
2023/08/19 11:29:31;;;;;;;;;;;;;;;18.17;55.69;100840.56;5095234;28;1983;-59
2023/08/19 11:31:59;;;;;;;;;;;;;;;18.19;55.60;100843.03;5095433;28;1038;-57
2023/08/19 11:34:26;;;;;;;;;;;;;;;18.18;55.36;100835.91;5091724;28;1307;-58
2023/08/19 11:36:51;;;;;;;;;;;;;;;18.19;55.64;100843.03;5086686;28;1378;-53
2023/08/19 11:39:17;;;;;;;;;;;;;;;18.21;55.49;100832.56;5080146;28;1118;-57
2023/08/19 11:41:45;;;;;;;;;;;;;;;18.17;55.83;100845.25;5091409;28;1109;-57
2023/08/19 11:44:11;;;;;;;;;;;;;;;18.19;55.42;100837.53;5095087;28;1038;-57
2023/08/19 11:46:36;;;;;;;;;;;;;;;18.20;55.38;100836.41;5097762;28;1098;-59
2023/08/19 11:49:06;;;;;;;;;;;;;;;18.16;55.44;100836.19;5098231;28;1985;-58
2023/08/19 11:51:32;;;;;;;;;;;;;;;18.21;55.70;100840.81;5080200;28;1054;-58
2023/08/19 11:54:01;;;;;;;;;;;;;;;18.23;55.64;100844.09;5098364;28;1094;-58
2023/08/19 11:56:26;;;;;;;;;;;;;;;18.26;55.62;100843.56;5096961;28;2275;-57
2023/08/19 11:58:52;;;;;;;;;;;;;;;18.16;55.61;100835.34;5098145;28;1045;-58
2023/08/19 12:01:18;;;;;;;;;;;;;;;18.19;55.53;100835.59;5089257;28;1102;-59
2023/08/19 12:03:44;;;;;;;;;;;;;;;18.19;55.56;100843.03;5098079;28;1014;-55
2023/08/19 12:06:10;;;;;;;;;;;;;;;18.21;55.72;100840.81;5098312;28;1068;-57
2023/08/19 12:08:38;;;;;;;;;;;;;;;18.16;55.59;100830.69;5098564;28;1975;-57
2023/08/19 12:11:03;;;;;;;;;;;;;;;18.21;55.49;100838.06;5097886;28;1097;-57
2023/08/19 12:13:29;;;;;;;;;;;;;;;18.21;55.68;100829.81;5098023;28;1140;-58
2023/08/19 12:15:55;;;;;;;;;;;;;;;18.26;55.61;100835.31;5098060;28;1050;-59
2023/08/19 12:18:20;;;;;;;;;;;;;;;18.18;55.60;100831.19;5098643;28;999;-57
2023/08/19 12:20:47;;;;;;;;;;;;;;;18.19;55.54;100837.53;5097521;28;1031;-58
2023/08/19 12:23:12;;;;;;;;;;;;;;;18.19;55.81;100848.53;5097988;28;994;-58
2023/08/19 12:25:46;;;;;;;;;;;;;;;18.21;55.59;100829.81;5091608;28;1098;-57
2023/08/19 12:28:12;;;;;;;;;;;;;;;18.20;55.42;100834.50;5087748;28;1034;-57
2023/08/19 12:30:37;;;;;;;;;;;;;;;18.13;55.72;100829.31;5097819;28;1054;-57
2023/08/19 12:33:03;;;;;;;;;;;;;;;18.22;55.51;100836.97;5098245;28;1014;-56
2023/08/19 12:35:29;;;;;;;;;;;;;;;18.15;55.66;100831.78;5097693;28;1018;-57
2023/08/19 12:37:56;;;;;;;;;;;;;;;18.14;55.74;100838.38;5097590;28;1127;-55
2023/08/19 12:40:21;;;;;;;;;;;;;;;18.19;55.67;100832.00;5097858;28;1014;-58
2023/08/19 12:42:47;;;;;;;;;;;;;;;18.16;55.67;100816.06;5083965;28;1181;-56